Time;durP1;ratioP1;P1;durP2;ratioP2;P2;SDS_P1;SDS_P2;PMS_P1;PMS_P2;Temp;Humidity;BMP_temperature;BMP_pressure;BME280_temperature;BME280_humidity;BME280_pressure;Samples;Min_cycle;Max_cycle;Signal;HPM_P1;HPM_P2
2022/11/08 00:01:30;;;;;;;1.53;1.43;;;6.80;97.60;5.90;95945.00;;;;5077711;28;20225;-56
2022/11/08 00:03:58;;;;;;;1.03;1.03;;;6.80;97.10;5.90;95943.00;;;;5095497;28;20614;-57
2022/11/08 00:14:39;;;;;;;1.60;1.50;;;6.70;95.90;5.90;95926.00;;;;5095139;28;20592;-59
2022/11/08 00:17:05;;;;;;;1.57;1.27;;;6.70;95.90;5.90;95933.00;;;;5095333;28;20664;-58
2022/11/08 00:19:32;;;;;;;1.40;1.40;;;6.70;95.50;5.80;95935.00;;;;5095138;28;20227;-60
2022/11/08 00:21:59;;;;;;;0.77;0.77;;;6.70;95.40;5.80;95930.00;;;;5095018;28;20197;-59
2022/11/08 00:24:26;;;;;;;1.17;1.17;;;6.70;95.60;5.80;95933.00;;;;5095010;28;20267;-57
2022/11/08 00:26:54;;;;;;;1.40;1.37;;;6.70;96.00;5.80;95926.00;;;;5095007;28;20218;-58
2022/11/08 00:29:23;;;;;;;0.70;0.70;;;6.70;95.90;5.80;95931.00;;;;5094246;28;20534;-59
2022/11/08 00:31:50;;;;;;;1.03;1.03;;;6.70;96.20;5.80;95929.00;;;;5095070;28;20202;-57
2022/11/08 00:34:16;;;;;;;1.40;1.40;;;6.60;96.50;5.70;95921.00;;;;5094971;28;20230;-58
2022/11/08 00:36:43;;;;;;;1.17;1.17;;;6.60;97.00;5.80;95924.00;;;;5093959;28;20209;-58
2022/11/08 00:39:10;;;;;;;1.43;1.33;;;6.60;97.40;5.80;95929.00;;;;5094747;28;20725;-58
2022/11/08 00:41:36;;;;;;;1.20;1.20;;;6.60;97.50;5.80;95922.00;;;;5094793;28;20837;-61
2022/11/08 00:44:04;;;;;;;0.60;0.60;;;6.60;97.50;5.80;95919.00;;;;5094598;28;20247;-59
2022/11/08 00:46:30;;;;;;;0.90;0.90;;;6.70;97.50;5.70;95919.00;;;;5094583;28;20229;-56
2022/11/08 00:48:57;;;;;;;0.93;0.93;;;6.60;97.20;5.70;95920.00;;;;5094096;28;20198;-58
2022/11/08 00:51:23;;;;;;;1.00;1.00;;;6.60;97.20;5.50;95911.00;;;;5094472;28;21679;-55
2022/11/08 00:53:52;;;;;;;1.10;1.10;;;6.40;96.30;5.40;95913.00;;;;5093725;28;20226;-58
2022/11/08 00:56:19;;;;;;;1.47;1.37;;;6.30;96.50;5.40;95914.00;;;;5094518;28;20220;-57
2022/11/08 00:58:45;;;;;;;0.93;0.93;;;6.20;96.50;5.30;95911.00;;;;5094458;28;20197;-56
2022/11/08 01:01:15;;;;;;;1.73;1.63;;;6.20;97.10;5.30;95907.00;;;;5093271;28;20256;-56
2022/11/08 01:03:42;;;;;;;1.17;1.17;;;6.20;96.10;5.40;95901.00;;;;5094326;28;20194;-56
2022/11/08 01:06:11;;;;;;;1.17;1.17;;;6.20;96.00;5.30;95892.00;;;;5094311;28;20605;-58
2022/11/08 01:08:38;;;;;;;1.83;1.73;;;6.20;95.70;5.20;95901.00;;;;5094282;28;20221;-58
2022/11/08 01:11:09;;;;;;;0.87;0.87;;;6.10;95.40;5.10;95894.00;;;;5094159;28;20233;-56
2022/11/08 01:13:36;;;;;;;1.07;1.07;;;6.10;95.30;5.10;95890.00;;;;5094154;28;20229;-61
2022/11/08 01:16:07;;;;;;;0.70;0.70;;;6.00;95.10;5.10;95891.00;;;;5094177;28;20195;-63
2022/11/08 01:18:34;;;;;;;0.80;0.80;;;5.90;95.10;5.00;95902.00;;;;5076332;28;20225;-58
2022/11/08 01:21:04;;;;;;;1.40;1.20;;;5.90;95.60;5.00;95903.00;;;;5094409;28;20278;-58
2022/11/08 01:23:31;;;;;;;1.07;1.07;;;5.80;95.70;5.00;95897.00;;;;5094273;28;20654;-58
2022/11/08 01:26:04;;;;;;;0.80;0.80;;;5.80;95.50;4.90;95896.00;;;;5094340;28;20265;-57
2022/11/08 01:28:31;;;;;;;1.03;1.03;;;5.80;95.40;5.00;95893.00;;;;5094103;28;20202;-58
2022/11/08 01:31:04;;;;;;;0.80;0.80;;;5.80;95.60;4.90;95898.00;;;;5093955;28;20218;-56
2022/11/08 01:33:31;;;;;;;0.63;0.63;;;5.80;95.70;4.80;95891.00;;;;5093867;28;20214;-56
2022/11/08 01:35:58;;;;;;;1.20;1.20;;;5.70;95.30;4.70;95884.00;;;;5093799;28;20268;-56
2022/11/08 01:38:24;;;;;;;0.90;0.90;;;5.60;95.80;4.60;95879.00;;;;5093840;28;20195;-58
2022/11/08 01:40:51;;;;;;;0.67;0.67;;;5.50;96.40;4.70;95876.00;;;;5093795;28;20190;-56
2022/11/08 01:43:42;;;;;;;0.90;0.90;;;5.50;97.40;4.70;95860.00;;;;5093804;28;20252;-60
2022/11/08 01:46:39;;;;;;;0.90;0.90;;;5.60;97.90;4.60;95856.00;;;;5091207;28;20249;-56
2022/11/08 01:49:33;;;;;;;0.53;0.53;;;5.60;97.20;4.60;95861.00;;;;5093698;28;20194;-56
2022/11/08 01:52:13;;;;;;;1.03;1.03;;;5.50;97.50;4.50;95868.00;;;;5093478;28;20339;-56
2022/11/08 01:54:46;;;;;;;0.60;0.60;;;5.40;97.40;4.50;95867.00;;;;5093583;28;20206;-56
2022/11/08 01:57:18;;;;;;;1.37;1.30;;;5.40;98.10;4.60;95858.00;;;;5093628;28;20209;-56
2022/11/08 01:59:50;;;;;;;0.80;0.80;;;5.50;98.40;4.70;95853.00;;;;5093728;28;20278;-55
2022/11/08 02:02:17;;;;;;;0.90;0.90;;;5.60;98.30;4.70;95850.00;;;;5096211;28;20198;-59
2022/11/08 02:04:46;;;;;;;0.97;0.97;;;5.50;98.10;4.70;95847.00;;;;5097066;28;20535;-58
2022/11/08 02:07:17;;;;;;;0.87;0.87;;;5.50;98.10;4.70;95849.00;;;;5097107;28;20673;-55
2022/11/08 02:09:47;;;;;;;1.03;1.03;;;5.60;98.40;4.60;95831.00;;;;5096853;28;20307;-57
2022/11/08 02:12:16;;;;;;;0.80;0.80;;;5.50;98.10;4.70;95837.00;;;;5095979;28;20210;-56
2022/11/08 02:14:42;;;;;;;1.43;1.27;;;5.60;98.30;4.70;95835.00;;;;5096942;28;20282;-57
2022/11/08 02:17:10;;;;;;;0.90;0.90;;;5.60;98.20;4.70;95824.00;;;;5095987;28;20641;-56
2022/11/08 02:19:42;;;;;;;0.90;0.90;;;5.50;98.00;4.70;95826.00;;;;5096925;28;20278;-57
2022/11/08 02:22:20;;;;;;;1.10;1.00;;;5.50;98.40;4.70;95825.00;;;;5096847;28;20309;-56
2022/11/08 02:24:47;;;;;;;0.70;0.70;;;5.60;97.50;4.60;95819.00;;;;5096993;28;20209;-58
2022/11/08 02:27:14;;;;;;;1.27;1.27;;;5.50;97.00;4.50;95807.00;;;;5096940;28;20199;-57
2022/11/08 02:29:43;;;;;;;1.00;1.00;;;5.40;96.90;4.60;95811.00;;;;5096653;28;20291;-56
2022/11/08 02:32:11;;;;;;;0.90;0.90;;;5.40;96.90;4.50;95812.00;;;;5095795;28;20209;-56
2022/11/08 02:34:48;;;;;;;1.00;1.00;;;5.40;97.50;4.60;95805.00;;;;5096565;28;20235;-56
2022/11/08 02:37:18;;;;;;;1.20;1.03;;;5.40;96.50;4.50;95809.00;;;;5096718;28;20194;-56
2022/11/08 02:39:46;;;;;;;1.30;1.30;;;5.40;95.40;4.40;95797.00;;;;5096621;28;20233;-56
2022/11/08 02:42:15;;;;;;;0.60;0.60;;;5.30;95.10;4.40;95805.00;;;;5078715;28;20221;-57
2022/11/08 02:44:41;;;;;;;0.80;0.80;;;5.20;94.90;4.50;95811.00;;;;5096513;28;20283;-57
2022/11/08 02:47:08;;;;;;;0.60;0.60;;;5.30;95.30;4.30;95799.00;;;;5096349;28;20240;-56
2022/11/08 02:49:37;;;;;;;1.17;1.17;;;5.20;95.30;4.30;95783.00;;;;5096323;28;20206;-56
2022/11/08 02:52:04;;;;;;;0.93;0.93;;;5.10;96.60;4.30;95796.00;;;;5096467;28;20299;-56
2022/11/08 02:54:31;;;;;;;1.03;1.03;;;5.20;97.20;4.30;95790.00;;;;5096365;28;20186;-57
2022/11/08 02:57:00;;;;;;;0.90;0.90;;;5.10;97.30;4.30;95799.00;;;;5096343;28;20238;-56
2022/11/08 02:59:27;;;;;;;1.23;1.23;;;5.20;97.70;4.30;95790.00;;;;5096190;28;20583;-55
2022/11/08 03:01:55;;;;;;;0.77;0.77;;;5.20;97.30;4.20;95791.00;;;;5096302;28;20202;-57
2022/11/08 03:04:25;;;;;;;0.80;0.80;;;;;4.00;95804.00;;;;5095484;28;20229;-64
2022/11/08 03:06:51;;;;;;;0.70;0.70;;;5.00;96.40;4.10;95793.00;;;;5096300;28;20679;-59
2022/11/08 03:09:17;;;;;;;1.00;1.00;;;5.10;97.90;4.00;95781.00;;;;5095510;28;20294;-62
2022/11/08 03:11:44;;;;;;;0.90;0.90;;;4.90;97.80;4.00;95781.00;;;;5095504;28;20226;-58
2022/11/08 03:14:10;;;;;;;3.87;1.83;;;4.90;97.80;4.10;95786.00;;;;5095270;28;20636;-60
2022/11/08 03:16:38;;;;;;;1.13;1.13;;;;;4.10;95797.00;;;;5096067;28;20219;-56
2022/11/08 03:19:05;;;;;;;1.00;1.00;;;;;4.20;95795.00;;;;5096022;28;20190;-57
2022/11/08 03:21:33;;;;;;;1.50;1.43;;;;;4.20;95794.00;;;;5095868;28;20280;-56
2022/11/08 03:24:00;;;;;;;0.70;0.70;;;;;4.10;95796.00;;;;5096023;28;20222;-56
2022/11/08 03:26:27;;;;;;;2.13;1.37;;;;;4.10;95793.00;;;;5095865;28;20280;-57
2022/11/08 03:28:55;;;;;;;0.93;0.93;;;;;4.00;95795.00;;;;5095829;28;20186;-57
2022/11/08 03:31:22;;;;;;;0.97;0.97;;;;;3.90;95798.00;;;;5095749;28;20216;-57
2022/11/08 03:33:49;;;;;;;0.87;0.87;;;;;3.90;95801.00;;;;5095807;28;20248;-56
2022/11/08 03:36:16;;;;;;;0.90;0.90;;;;;3.90;95790.00;;;;5095821;28;20297;-56
2022/11/08 03:38:42;;;;;;;1.17;1.03;;;;;3.80;95789.00;;;;5095540;28;20282;-58
2022/11/08 03:41:09;;;;;;;1.30;1.20;;;4.80;94.60;3.90;95795.00;;;;5095740;28;20195;-56
2022/11/08 03:43:35;;;;;;;1.20;1.20;;;4.70;95.20;3.90;95797.00;;;;5095725;28;20549;-56
2022/11/08 03:46:02;;;;;;;0.70;0.70;;;4.70;95.10;3.90;95797.00;;;;5095613;28;20231;-57
2022/11/08 03:48:28;;;;;;;1.00;1.00;;;4.70;95.30;3.90;95794.00;;;;5095335;28;20658;-57
2022/11/08 03:50:58;;;;;;;3.30;1.57;;;4.80;95.50;3.90;95779.00;;;;5095416;28;20647;-56
2022/11/08 03:53:24;;;;;;;1.10;1.10;;;4.80;95.40;3.90;95782.00;;;;5095443;28;20198;-57
2022/11/08 03:55:53;;;;;;;3.10;1.73;;;4.80;95.60;3.90;95792.00;;;;5094865;28;20575;-57
2022/11/08 03:58:19;;;;;;;1.70;1.60;;;4.80;95.80;3.90;95784.00;;;;5094565;28;20234;-58
2022/11/08 04:00:46;;;;;;;1.23;1.23;;;4.80;95.80;3.90;95785.00;;;;5095265;28;20223;-57
2022/11/08 04:03:12;;;;;;;2.53;2.23;;;4.70;95.70;3.90;95769.00;;;;5095368;28;20260;-57
2022/11/08 04:05:39;;;;;;;1.37;1.37;;;;;3.80;95775.00;;;;5095428;28;20291;-56
2022/11/08 04:08:06;;;;;;;1.23;1.23;;;4.70;94.20;3.70;95775.00;;;;5095283;28;20194;-57
2022/11/08 04:10:33;;;;;;;2.87;1.93;;;;;3.70;95777.00;;;;5095104;28;20214;-58
2022/11/08 04:15:50;;;;;;;1.47;1.37;;;4.50;95.10;3.60;95765.00;;;;5077443;28;20215;-56
2022/11/08 04:21:21;;;;;;;1.23;1.23;;;4.60;94.40;3.60;95770.00;;;;5095211;28;20198;-56
2022/11/08 04:23:50;;;;;;;0.80;0.80;;;4.60;94.00;3.70;95771.00;;;;5093107;28;20557;-56
2022/11/08 04:26:17;;;;;;;1.00;1.00;;;4.60;94.00;3.70;95757.00;;;;5095163;28;20241;-56
2022/11/08 04:28:44;;;;;;;1.00;1.00;;;4.60;94.70;3.70;95770.00;;;;5095067;28;20206;-57
2022/11/08 04:31:13;;;;;;;0.80;0.80;;;4.60;94.90;3.70;95755.00;;;;5094696;28;20238;-56
2022/11/08 04:33:41;;;;;;;0.70;0.70;;;4.50;94.70;3.70;95767.00;;;;5094827;28;20213;-56
2022/11/08 04:36:11;;;;;;;0.80;0.80;;;4.60;95.00;3.70;95767.00;;;;5093909;28;20206;-58
2022/11/08 04:38:37;;;;;;;0.90;0.90;;;4.60;95.30;3.70;95766.00;;;;5093960;28;20692;-56
2022/11/08 04:41:06;;;;;;;0.90;0.90;;;;;3.60;95757.00;;;;5094789;28;20199;-56
2022/11/08 04:43:33;;;;;;;0.60;0.60;;;4.50;95.70;3.60;95746.00;;;;5094615;28;20219;-56
2022/11/08 04:46:06;;;;;;;0.90;0.90;;;4.50;96.00;3.60;95756.00;;;;5094748;28;20206;-58
2022/11/08 04:48:33;;;;;;;0.97;0.97;;;4.50;95.70;3.60;95751.00;;;;5093602;28;20317;-56
2022/11/08 04:51:04;;;;;;;0.70;0.70;;;4.40;95.30;3.50;95745.00;;;;5094491;28;20222;-56
2022/11/08 04:53:31;;;;;;;2.13;1.33;;;4.40;95.80;3.50;95742.00;;;;5094589;28;20223;-56
2022/11/08 04:56:03;;;;;;;0.80;0.80;;;4.40;96.20;3.50;95743.00;;;;5094763;28;20339;-60
2022/11/08 04:58:34;;;;;;;0.77;0.77;;;4.30;96.00;3.40;95737.00;;;;5094396;28;20542;-58
2022/11/08 05:01:01;;;;;;;1.23;0.73;;;4.30;96.80;3.40;95745.00;;;;5094427;28;20655;-56
2022/11/08 05:03:28;;;;;;;0.73;0.73;;;4.30;96.70;3.30;95741.00;;;;5076545;28;20192;-56
2022/11/08 05:05:55;;;;;;;1.07;1.03;;;4.30;96.60;3.30;95726.00;;;;5094447;28;20192;-57
2022/11/08 05:08:21;;;;;;;0.60;0.60;;;4.20;96.00;3.30;95703.00;;;;5094370;28;20217;-57
2022/11/08 05:10:50;;;;;;;0.90;0.90;;;4.20;96.70;3.30;95728.00;;;;5093306;28;20333;-58
2022/11/08 05:13:19;;;;;;;0.70;0.70;;;4.20;97.00;3.20;95728.00;;;;5094441;28;20263;-56
2022/11/08 05:15:46;;;;;;;0.70;0.70;;;4.20;96.70;3.10;95730.00;;;;5093547;28;20259;-58
2022/11/08 05:18:13;;;;;;;0.70;0.70;;;4.10;96.80;3.10;95726.00;;;;5094490;28;20623;-58
2022/11/08 05:23:23;;;;;;;1.07;1.07;;;3.90;96.70;3.00;95718.00;;;;5094298;28;20207;-61
2022/11/08 05:25:52;;;;;;;0.90;0.90;;;3.90;97.30;3.00;95720.00;;;;5093207;28;20210;-58
2022/11/08 05:28:18;;;;;;;0.77;0.77;;;3.90;97.70;2.90;95725.00;;;;5093474;28;20201;-57
2022/11/08 05:30:52;;;;;;;0.83;0.83;;;3.90;97.50;2.90;95726.00;;;;5094311;28;20269;-57
2022/11/08 05:33:19;;;;;;;0.80;0.80;;;3.80;97.10;2.90;95724.00;;;;5076485;28;20275;-57
2022/11/08 05:35:45;;;;;;;1.40;1.30;;;3.80;97.70;2.90;95731.00;;;;5093865;28;20281;-62
2022/11/08 05:38:12;;;;;;;1.10;1.10;;;3.90;98.10;2.90;95726.00;;;;5093984;28;20223;-61
2022/11/08 05:40:39;;;;;;;0.70;0.70;;;3.80;97.50;2.90;95721.00;;;;5093882;28;20228;-56
2022/11/08 05:43:06;;;;;;;0.63;0.63;;;3.80;97.80;2.80;95728.00;;;;5093987;28;20257;-59
2022/11/08 05:45:35;;;;;;;0.60;0.60;;;3.80;98.00;2.90;95717.00;;;;5075867;28;20255;-60
2022/11/08 05:48:04;;;;;;;1.63;1.33;;;3.80;98.40;3.00;95709.00;;;;5093982;28;20205;-56
2022/11/08 05:50:31;;;;;;;1.73;1.63;;;3.90;99.20;3.00;95722.00;;;;5093623;28;20230;-58
2022/11/08 05:52:57;;;;;;;0.70;0.70;;;3.90;98.60;3.00;95716.00;;;;5093908;28;20282;-56
2022/11/08 05:55:24;;;;;;;1.60;1.50;;;3.90;98.30;3.00;95714.00;;;;5093698;28;20214;-56
2022/11/08 05:57:51;;;;;;;1.20;1.20;;;3.90;98.30;3.00;95709.00;;;;5093808;28;20230;-56
2022/11/08 06:00:19;;;;;;;0.60;0.60;;;3.90;99.00;3.00;95694.00;;;;5075759;28;20234;-56
2022/11/08 06:02:45;;;;;;;0.80;0.80;;;4.00;98.80;3.00;95698.00;;;;5093601;28;20190;-57
2022/11/08 06:05:13;;;;;;;0.60;0.60;;;3.90;97.70;2.90;95700.00;;;;5093573;28;20301;-56
2022/11/08 06:07:39;;;;;;;1.00;1.00;;;3.90;99.10;2.80;95706.00;;;;5093560;28;20272;-57
2022/11/08 06:10:08;;;;;;;0.80;0.80;;;3.80;97.80;2.80;95671.00;;;;5092452;28;20237;-56
2022/11/08 06:12:37;;;;;;;1.13;1.13;;;3.80;97.90;2.80;95702.00;;;;5092583;28;20209;-57
2022/11/08 06:15:05;;;;;;;1.20;1.20;;;3.70;97.90;2.90;95698.00;;;;5075755;28;20291;-57
2022/11/08 06:17:32;;;;;;;1.27;1.27;;;3.80;97.80;2.90;95703.00;;;;5093423;28;20203;-56
2022/11/08 06:20:01;;;;;;;1.20;1.20;;;3.90;96.90;3.00;95701.00;;;;5093283;28;20647;-57
2022/11/08 06:22:31;;;;;;;1.67;1.57;;;3.80;96.20;3.00;95682.00;;;;5093693;28;20191;-57
2022/11/08 06:24:57;;;;;;;17.40;1.50;;;3.90;99.90;3.10;95690.00;;;;5093440;28;20285;-58
2022/11/08 06:27:24;;;;;;;2.60;2.40;;;4.10;96.20;3.20;95697.00;;;;5093502;28;20202;-58
2022/11/08 06:29:51;;;;;;;2.37;2.17;;;4.10;96.30;3.30;95694.00;;;;5093411;28;20290;-58
2022/11/08 06:32:17;;;;;;;1.30;1.30;;;4.40;97.60;3.50;95699.00;;;;5093496;28;20191;-57
2022/11/08 06:34:45;;;;;;;2.47;2.07;;;4.50;96.90;3.60;95711.00;;;;5093322;28;20318;-57
2022/11/08 06:37:12;;;;;;;2.00;1.90;;;4.70;99.90;3.80;95715.00;;;;5093222;28;20191;-57
2022/11/08 06:39:40;;;;;;;3.87;3.47;;;4.70;96.60;3.80;95709.00;;;;5093233;28;20263;-57
2022/11/08 06:42:06;;;;;;;1.77;1.67;;;4.70;96.40;3.90;95692.00;;;;5092187;28;20279;-58
2022/11/08 06:44:33;;;;;;;1.00;1.00;;;;;3.90;95714.00;;;;5093129;28;20201;-57
2022/11/08 06:47:01;;;;;;;1.37;1.33;;;4.70;99.90;3.90;95715.00;;;;5076954;28;20225;-58
2022/11/08 06:49:31;;;;;;;0.63;0.63;;;;;4.00;95709.00;;;;5096629;28;20226;-57
2022/11/08 06:51:57;;;;;;;0.80;0.80;;;4.90;96.20;4.10;95711.00;;;;5096494;28;20250;-57
2022/11/08 06:54:23;;;;;;;0.90;0.90;;;4.90;97.30;4.10;95718.00;;;;5095625;28;20297;-58
2022/11/08 06:56:54;;;;;;;0.60;0.60;;;5.00;95.20;4.10;95724.00;;;;5095640;28;20311;-57
2022/11/08 06:59:22;;;;;;;1.00;1.00;;;4.90;95.20;4.20;95719.00;;;;5096413;28;20332;-57
2022/11/08 07:01:48;;;;;;;1.67;1.57;;;5.10;95.80;4.30;95722.00;;;;5095305;28;20233;-57
2022/11/08 07:04:15;;;;;;;0.70;0.70;;;5.30;95.90;4.50;95726.00;;;;5096469;28;20282;-59
2022/11/08 07:06:41;;;;;;;1.00;1.00;;;5.40;96.00;4.60;95721.00;;;;5096258;28;20222;-57
2022/11/08 07:09:08;;;;;;;0.73;0.73;;;5.50;95.80;4.70;95721.00;;;;5096264;28;20210;-57
2022/11/08 07:11:37;;;;;;;0.80;0.80;;;5.60;95.90;4.80;95715.00;;;;5096246;28;20235;-58
2022/11/08 07:14:04;;;;;;;0.87;0.87;;;5.70;95.90;4.90;95710.00;;;;5096252;28;20222;-59
2022/11/08 07:16:31;;;;;;;0.70;0.70;;;5.70;96.00;5.00;95725.00;;;;5096199;28;20785;-62
2022/11/08 07:18:59;;;;;;;0.60;0.60;;;5.80;96.20;5.10;95707.00;;;;5096409;28;20290;-58
2022/11/08 07:21:28;;;;;;;1.27;0.87;;;5.80;97.50;5.10;95695.00;;;;5096109;28;20223;-58
2022/11/08 07:23:55;;;;;;;0.67;0.67;;;5.90;96.40;5.20;95694.00;;;;5096178;28;20214;-56
2022/11/08 07:26:21;;;;;;;1.10;1.10;;;6.10;95.60;5.20;95691.00;;;;5095739;28;20306;-56
2022/11/08 07:28:48;;;;;;;1.00;1.00;;;6.00;94.60;5.10;95702.00;;;;5096104;28;20195;-56
2022/11/08 07:31:15;;;;;;;0.80;0.80;;;5.80;92.90;4.90;95675.00;;;;5078028;28;20299;-57
2022/11/08 07:33:41;;;;;;;0.67;0.67;;;5.80;93.50;5.00;95681.00;;;;5095919;28;20201;-56
2022/11/08 07:36:08;;;;;;;0.70;0.70;;;5.80;93.10;5.00;95676.00;;;;5095738;28;20222;-57
2022/11/08 07:38:35;;;;;;;0.77;0.77;;;5.80;92.80;5.00;95691.00;;;;5095910;28;20195;-57
2022/11/08 07:41:04;;;;;;;0.80;0.80;;;5.80;92.20;4.90;95686.00;;;;5095815;28;20202;-56
2022/11/08 07:43:31;;;;;;;0.80;0.80;;;5.70;91.60;5.00;95695.00;;;;5095899;28;20211;-57
2022/11/08 07:46:00;;;;;;;0.70;0.70;;;5.80;91.80;5.00;95691.00;;;;5095636;28;20230;-57
2022/11/08 07:48:30;;;;;;;0.70;0.70;;;5.80;92.60;5.20;95697.00;;;;5095955;28;20199;-58
2022/11/08 07:50:57;;;;;;;1.33;1.27;;;6.10;93.00;5.40;95711.00;;;;5094826;28;20669;-57
2022/11/08 07:53:24;;;;;;;0.93;0.93;;;6.40;93.70;5.80;95705.00;;;;5095537;28;20191;-56
2022/11/08 07:55:51;;;;;;;1.20;1.20;;;6.50;93.70;6.10;95717.00;;;;5095576;28;20305;-58
2022/11/08 07:58:17;;;;;;;0.93;0.93;;;6.60;91.50;5.90;95704.00;;;;5095464;28;20524;-57
2022/11/08 08:00:48;;;;;;;1.17;1.17;;;6.70;92.40;5.90;95707.00;;;;5095465;28;20339;-56
2022/11/08 08:03:15;;;;;;;1.00;1.00;;;6.60;93.30;5.90;95701.00;;;;5095369;28;20201;-56
2022/11/08 08:05:45;;;;;;;0.60;0.60;;;6.80;95.10;6.10;95706.00;;;;5095426;28;20204;-57
2022/11/08 08:08:13;;;;;;;0.60;0.60;;;6.90;94.40;6.30;95704.00;;;;5095429;28;20215;-58
2022/11/08 08:10:40;;;;;;;0.97;0.97;;;7.00;94.10;6.40;95702.00;;;;5077680;28;20226;-57
2022/11/08 08:13:07;;;;;;;1.10;1.10;;;7.10;94.70;6.50;95701.00;;;;5095163;28;20518;-57
2022/11/08 08:15:33;;;;;;;0.80;0.80;;;7.30;94.20;6.70;95706.00;;;;5095345;28;20195;-57
2022/11/08 08:18:02;;;;;;;1.30;1.30;;;7.40;94.80;6.80;95705.00;;;;5095191;28;20279;-57
2022/11/08 08:20:30;;;;;;;0.70;0.70;;;7.50;94.60;6.90;95697.00;;;;5095198;28;20225;-57
2022/11/08 08:22:58;;;;;;;1.23;1.23;;;7.60;94.10;7.10;95702.00;;;;5095176;28;20250;-57
2022/11/08 08:25:27;;;;;;;5.00;2.20;;;7.70;93.80;7.20;95681.00;;;;5095124;28;20289;-57
2022/11/08 08:27:59;;;;;;;0.80;0.80;;;7.90;93.60;7.30;95709.00;;;;5094985;28;20286;-59
2022/11/08 08:30:27;;;;;;;0.70;0.70;;;8.00;93.70;7.30;95717.00;;;;5094965;28;20289;-57
2022/11/08 08:33:03;;;;;;;1.30;1.20;;;8.10;93.20;7.50;95717.00;;;;5094881;28;20214;-57
2022/11/08 08:35:34;;;;;;;1.03;1.03;;;8.20;92.70;7.70;95703.00;;;;5093967;28;20194;-60
2022/11/08 08:38:02;;;;;;;0.97;0.97;;;8.30;92.70;7.80;95714.00;;;;5093804;28;20225;-57
2022/11/08 08:40:29;;;;;;;0.80;0.80;;;8.50;92.20;8.00;95703.00;;;;5094890;28;20643;-57
2022/11/08 08:42:57;;;;;;;1.33;0.93;;;8.60;92.10;8.10;95715.00;;;;5076882;28;20254;-57
2022/11/08 08:45:25;;;;;;;1.20;1.20;;;8.70;92.30;8.30;95710.00;;;;5094735;28;20194;-58
2022/11/08 08:47:56;;;;;;;1.20;1.20;;;8.90;92.10;8.40;95718.00;;;;5094664;28;20237;-59
2022/11/08 08:50:24;;;;;;;0.90;0.90;;;9.00;91.10;8.30;95724.00;;;;5076802;28;20227;-62
2022/11/08 08:52:58;;;;;;;0.70;0.70;;;9.00;90.40;8.30;95723.00;;;;5093746;28;20250;-60
2022/11/08 08:55:26;;;;;;;1.63;1.53;;;9.00;90.50;8.40;95711.00;;;;5094739;28;20201;-57
2022/11/08 08:57:52;;;;;;;0.70;0.70;;;9.10;90.30;8.40;95719.00;;;;5094540;28;20223;-56
2022/11/08 09:00:19;;;;;;;0.60;0.60;;;9.10;89.00;8.60;95721.00;;;;5094651;28;20215;-56
2022/11/08 09:02:46;;;;;;;0.60;0.60;;;9.20;89.20;8.70;95715.00;;;;5094505;28;20215;-56
2022/11/08 09:05:13;;;;;;;0.60;0.60;;;9.30;89.10;8.90;95722.00;;;;5094514;28;20249;-56
2022/11/08 09:07:40;;;;;;;1.13;1.03;;;;;8.70;95734.00;;;;5094455;28;20372;-56
2022/11/08 09:10:10;;;;;;;1.17;1.17;;;9.40;86.40;8.80;95727.00;;;;5093776;28;20191;-56
2022/11/08 09:12:38;;;;;;;0.80;0.80;;;9.40;88.20;8.90;95739.00;;;;5094170;28;20301;-56
2022/11/08 09:15:06;;;;;;;0.53;0.53;;;9.60;88.30;9.00;95732.00;;;;5076396;28;20642;-56
2022/11/08 09:17:32;;;;;;;0.60;0.60;;;9.60;87.20;9.10;95738.00;;;;5094539;28;20626;-56
2022/11/08 09:20:02;;;;;;;1.00;1.00;;;9.70;87.90;9.30;95738.00;;;;5094327;28;20191;-57
2022/11/08 09:22:33;;;;;;;0.70;0.70;;;9.80;88.50;9.50;95738.00;;;;5076232;28;20561;-56
2022/11/08 09:24:59;;;;;;;0.70;0.70;;;10.00;87.70;9.40;95744.00;;;;5094259;28;20195;-56
2022/11/08 09:27:28;;;;;;;0.77;0.77;;;10.00;86.80;9.50;95732.00;;;;5094152;28;20202;-57
2022/11/08 09:29:57;;;;;;;0.80;0.80;;;10.10;86.40;9.40;95741.00;;;;5094208;28;20206;-60
2022/11/08 09:32:26;;;;;;;0.50;0.50;;;10.10;84.60;9.60;95740.00;;;;5094090;28;20199;-56
2022/11/08 09:34:54;;;;;;;1.10;1.00;;;10.10;85.20;9.80;95745.00;;;;5094063;28;20230;-56
2022/11/08 09:37:23;;;;;;;0.60;0.60;;;10.30;84.60;9.80;95750.00;;;;5093994;28;20282;-56
2022/11/08 09:39:50;;;;;;;0.90;0.90;;;10.30;82.00;9.90;95738.00;;;;5093709;28;20213;-56
2022/11/08 09:42:53;;;;;;;0.80;0.80;;;10.40;80.70;10.30;95741.00;;;;5093956;28;20194;-59
2022/11/08 09:45:27;;;;;;;0.57;0.57;;;10.70;80.10;10.30;95736.00;;;;5093954;28;20301;-58
2022/11/08 09:48:01;;;;;;;0.97;0.97;;;10.90;78.80;10.50;95739.00;;;;5093871;28;20660;-58
2022/11/08 09:50:37;;;;;;;0.77;0.77;;;11.10;80.20;10.70;95742.00;;;;5093738;28;20654;-58
2022/11/08 09:53:16;;;;;;;0.63;0.63;;;11.20;80.00;10.90;95736.00;;;;5093851;28;20680;-58
2022/11/08 09:55:51;;;;;;;0.60;0.60;;;11.40;79.50;10.90;95740.00;;;;5093818;28;20282;-58
2022/11/08 09:58:27;;;;;;;1.43;1.33;;;11.50;78.90;11.10;95742.00;;;;5093763;28;20218;-57
2022/11/08 10:00:54;;;;;;;1.17;1.10;;;11.60;80.70;11.00;95742.00;;;;5093708;28;20657;-57
2022/11/08 10:03:24;;;;;;;6.03;1.33;;;11.60;80.30;11.10;95742.00;;;;5093593;28;20692;-57
2022/11/08 10:06:15;;;;;;;0.70;0.70;;;11.60;78.90;11.10;95730.00;;;;5092780;28;20494;-57
2022/11/08 10:08:57;;;;;;;1.30;1.20;;;11.70;78.50;11.50;95732.00;;;;5093648;28;20226;-56
2022/11/08 10:11:45;;;;;;;1.07;0.90;;;11.90;79.10;11.50;95728.00;;;;5093490;28;20647;-60
2022/11/08 10:14:31;;;;;;;0.70;0.70;;;12.10;78.80;11.30;95728.00;;;;5093449;28;20218;-57
2022/11/08 10:17:23;;;;;;;0.87;0.87;;;12.00;78.70;11.30;95718.00;;;;5093513;28;20221;-58
2022/11/08 10:20:09;;;;;;;0.60;0.60;;;11.90;78.90;11.30;95719.00;;;;5093399;28;20218;-56
2022/11/08 10:22:51;;;;;;;0.60;0.60;;;11.90;78.40;11.30;95707.00;;;;5078039;28;20512;-62
2022/11/08 10:25:32;;;;;;;1.43;1.33;;;11.90;78.00;11.50;95714.00;;;;5079363;28;20340;-60
2022/11/08 10:28:03;;;;;;;0.70;0.70;;;12.10;78.60;11.80;95721.00;;;;5096094;28;20287;-58
2022/11/08 10:30:34;;;;;;;0.60;0.60;;;12.30;77.40;12.00;95728.00;;;;5096904;28;20218;-59
2022/11/08 10:33:15;;;;;;;0.60;0.60;;;12.50;74.50;12.00;95721.00;;;;5096786;28;20214;-57
2022/11/08 10:35:53;;;;;;;0.80;0.80;;;12.50;75.20;12.10;95724.00;;;;5079180;28;20199;-57
2022/11/08 10:38:29;;;;;;;1.43;1.33;;;12.60;75.00;12.20;95719.00;;;;5096839;28;20273;-56
2022/11/08 10:41:07;;;;;;;0.80;0.80;;;12.70;74.30;12.30;95726.00;;;;5096690;28;20269;-57
2022/11/08 10:43:39;;;;;;;0.63;0.63;;;12.80;75.00;12.60;95717.00;;;;5096623;28;20273;-59
2022/11/08 10:46:30;;;;;;;0.80;0.80;;;13.00;74.20;13.10;95700.00;;;;5096710;28;20737;-56
2022/11/08 10:49:09;;;;;;;2.43;1.37;;;13.40;73.10;13.40;95700.00;;;;5096539;28;20714;-56
2022/11/08 10:51:36;;;;;;;1.13;1.13;;;13.70;72.20;13.90;95699.00;;;;5096578;28;20206;-57
2022/11/08 10:54:02;;;;;;;0.60;0.60;;;14.10;69.70;14.10;95687.00;;;;5096345;28;20722;-57
2022/11/08 10:56:29;;;;;;;0.63;0.63;;;14.40;66.70;14.50;95689.00;;;;5078659;28;20293;-58
2022/11/08 10:58:55;;;;;;;0.50;0.50;;;14.70;62.80;14.90;95684.00;;;;5078590;28;20221;-58
2022/11/08 11:01:25;;;;;;;0.70;0.70;;;15.00;57.90;15.20;95676.00;;;;5096764;28;20209;-62
2022/11/08 11:03:52;;;;;;;1.27;1.17;;;15.30;54.40;15.50;95678.00;;;;5096241;28;20742;-56
2022/11/08 11:06:28;;;;;;;0.80;0.80;;;15.60;52.20;15.40;95662.00;;;;5096164;28;20208;-57
2022/11/08 11:08:58;;;;;;;0.60;0.60;;;15.70;49.00;15.70;95661.00;;;;5095286;28;20700;-57
2022/11/08 11:11:37;;;;;;;5.40;0.83;;;15.90;47.90;15.90;95683.00;;;;5096176;28;20230;-59
2022/11/08 11:14:12;;;;;;;0.93;0.90;;;16.10;45.50;15.50;95667.00;;;;5096081;28;20209;-58
2022/11/08 11:16:55;;;;;;;1.13;1.03;;;16.00;43.80;15.50;95677.00;;;;5096152;28;20297;-57
2022/11/08 11:19:24;;;;;;;0.93;0.93;;;15.90;44.50;15.40;95682.00;;;;5095978;28;20299;-58
2022/11/08 11:21:56;;;;;;;0.70;0.70;;;15.90;45.30;15.60;95687.00;;;;5096107;28;20296;-58
2022/11/08 11:24:26;;;;;;;1.17;0.80;;;16.00;44.80;15.50;95679.00;;;;5096027;28;20226;-56
2022/11/08 11:27:05;;;;;;;0.50;0.50;;;16.00;43.20;15.60;95680.00;;;;5095999;28;20328;-56
2022/11/08 11:29:37;;;;;;;0.70;0.70;;;16.00;42.90;15.70;95676.00;;;;5095842;28;20265;-56
2022/11/08 11:32:24;;;;;;;0.60;0.60;;;16.10;43.40;16.20;95685.00;;;;5095397;28;20214;-57
2022/11/08 11:34:55;;;;;;;0.60;0.60;;;16.40;41.10;17.00;95680.00;;;;5095779;28;20218;-56
2022/11/08 11:37:35;;;;;;;0.73;0.73;;;16.90;40.40;16.50;95678.00;;;;5077936;28;20634;-56
2022/11/08 11:40:16;;;;;;;1.07;1.07;;;17.00;40.00;16.00;95669.00;;;;5095611;28;20278;-58